sensor_id;sensor_type;location;lat;lon;timestamp;P1;durP1;ratioP1;P2;durP2;ratioP2
5890;SDS011;2971;52.420;7.080;2024-01-16T00:01:07;12.03;;;2.60;;
5890;SDS011;2971;52.420;7.080;2024-01-16T00:03:33;9.60;;;2.77;;
5890;SDS011;2971;52.420;7.080;2024-01-16T00:06:00;14.23;;;2.73;;
5890;SDS011;2971;52.420;7.080;2024-01-16T00:08:25;8.23;;;2.37;;
5890;SDS011;2971;52.420;7.080;2024-01-16T00:10:52;13.00;;;2.80;;
5890;SDS011;2971;52.420;7.080;2024-01-16T00:13:18;11.57;;;2.60;;
5890;SDS011;2971;52.420;7.080;2024-01-16T00:15:43;8.80;;;2.60;;
5890;SDS011;2971;52.420;7.080;2024-01-16T00:18:09;11.27;;;2.87;;
5890;SDS011;2971;52.420;7.080;2024-01-16T00:20:35;9.93;;;2.60;;
5890;SDS011;2971;52.420;7.080;2024-01-16T00:23:00;11.93;;;2.80;;
5890;SDS011;2971;52.420;7.080;2024-01-16T00:25:26;10.23;;;2.30;;
5890;SDS011;2971;52.420;7.080;2024-01-16T00:27:54;6.90;;;2.57;;
5890;SDS011;2971;52.420;7.080;2024-01-16T00:30:19;14.23;;;3.10;;
5890;SDS011;2971;52.420;7.080;2024-01-16T00:32:45;14.47;;;2.90;;
5890;SDS011;2971;52.420;7.080;2024-01-16T00:35:11;11.17;;;2.90;;
5890;SDS011;2971;52.420;7.080;2024-01-16T00:37:36;13.93;;;2.97;;
5890;SDS011;2971;52.420;7.080;2024-01-16T00:40:03;10.27;;;2.63;;
5890;SDS011;2971;52.420;7.080;2024-01-16T00:42:29;9.37;;;2.70;;
5890;SDS011;2971;52.420;7.080;2024-01-16T00:44:56;6.97;;;2.03;;
5890;SDS011;2971;52.420;7.080;2024-01-16T00:47:22;11.80;;;2.83;;
5890;SDS011;2971;52.420;7.080;2024-01-16T00:49:47;8.83;;;2.20;;
5890;SDS011;2971;52.420;7.080;2024-01-16T00:52:14;6.73;;;2.53;;
5890;SDS011;2971;52.420;7.080;2024-01-16T00:54:39;9.97;;;2.57;;
5890;SDS011;2971;52.420;7.080;2024-01-16T00:57:06;11.07;;;2.40;;
5890;SDS011;2971;52.420;7.080;2024-01-16T00:59:44;8.50;;;2.57;;
5890;SDS011;2971;52.420;7.080;2024-01-16T01:02:11;10.40;;;2.80;;
5890;SDS011;2971;52.420;7.080;2024-01-16T01:04:37;12.67;;;2.47;;
5890;SDS011;2971;52.420;7.080;2024-01-16T01:07:03;7.27;;;2.80;;
5890;SDS011;2971;52.420;7.080;2024-01-16T01:09:29;8.27;;;2.60;;
5890;SDS011;2971;52.420;7.080;2024-01-16T01:11:54;8.20;;;2.33;;
5890;SDS011;2971;52.420;7.080;2024-01-16T01:14:20;9.60;;;2.67;;
5890;SDS011;2971;52.420;7.080;2024-01-16T01:16:45;9.57;;;2.57;;
5890;SDS011;2971;52.420;7.080;2024-01-16T01:19:12;10.30;;;2.40;;
5890;SDS011;2971;52.420;7.080;2024-01-16T01:21:38;8.43;;;2.50;;
5890;SDS011;2971;52.420;7.080;2024-01-16T01:24:04;8.93;;;2.43;;
5890;SDS011;2971;52.420;7.080;2024-01-16T01:26:29;11.00;;;2.73;;
5890;SDS011;2971;52.420;7.080;2024-01-16T01:28:55;9.60;;;2.70;;
5890;SDS011;2971;52.420;7.080;2024-01-16T01:31:21;11.80;;;2.47;;
5890;SDS011;2971;52.420;7.080;2024-01-16T01:33:46;11.27;;;2.73;;
5890;SDS011;2971;52.420;7.080;2024-01-16T01:36:14;11.67;;;2.70;;
5890;SDS011;2971;52.420;7.080;2024-01-16T01:38:39;10.83;;;2.43;;
5890;SDS011;2971;52.420;7.080;2024-01-16T01:41:05;12.80;;;2.27;;
5890;SDS011;2971;52.420;7.080;2024-01-16T01:43:31;8.60;;;2.17;;
5890;SDS011;2971;52.420;7.080;2024-01-16T01:46:08;10.07;;;2.53;;
5890;SDS011;2971;52.420;7.080;2024-01-16T01:48:35;10.50;;;2.57;;
5890;SDS011;2971;52.420;7.080;2024-01-16T01:51:00;10.83;;;2.80;;
5890;SDS011;2971;52.420;7.080;2024-01-16T01:53:28;11.63;;;2.63;;
5890;SDS011;2971;52.420;7.080;2024-01-16T01:55:53;13.47;;;3.03;;
5890;SDS011;2971;52.420;7.080;2024-01-16T01:58:20;10.50;;;2.50;;
5890;SDS011;2971;52.420;7.080;2024-01-16T02:00:46;7.30;;;2.13;;
5890;SDS011;2971;52.420;7.080;2024-01-16T02:03:12;9.60;;;2.30;;
5890;SDS011;2971;52.420;7.080;2024-01-16T02:05:38;12.50;;;2.67;;
5890;SDS011;2971;52.420;7.080;2024-01-16T02:08:04;16.27;;;2.23;;
5890;SDS011;2971;52.420;7.080;2024-01-16T02:10:31;6.63;;;2.33;;
5890;SDS011;2971;52.420;7.080;2024-01-16T02:12:57;10.83;;;2.50;;
5890;SDS011;2971;52.420;7.080;2024-01-16T02:15:23;7.73;;;2.73;;
5890;SDS011;2971;52.420;7.080;2024-01-16T02:17:48;16.47;;;2.87;;
5890;SDS011;2971;52.420;7.080;2024-01-16T02:20:14;10.57;;;2.63;;
5890;SDS011;2971;52.420;7.080;2024-01-16T02:22:40;9.37;;;2.43;;
5890;SDS011;2971;52.420;7.080;2024-01-16T02:25:08;10.77;;;2.60;;
5890;SDS011;2971;52.420;7.080;2024-01-16T02:27:33;12.20;;;3.40;;
5890;SDS011;2971;52.420;7.080;2024-01-16T02:29:59;9.07;;;3.10;;
5890;SDS011;2971;52.420;7.080;2024-01-16T02:32:24;15.20;;;3.50;;
5890;SDS011;2971;52.420;7.080;2024-01-16T02:34:50;8.03;;;3.20;;
5890;SDS011;2971;52.420;7.080;2024-01-16T02:37:16;11.03;;;3.33;;
5890;SDS011;2971;52.420;7.080;2024-01-16T02:39:41;8.70;;;3.33;;
5890;SDS011;2971;52.420;7.080;2024-01-16T02:42:08;11.57;;;3.80;;
5890;SDS011;2971;52.420;7.080;2024-01-16T02:44:34;15.60;;;4.27;;
5890;SDS011;2971;52.420;7.080;2024-01-16T02:46:59;7.70;;;3.87;;
5890;SDS011;2971;52.420;7.080;2024-01-16T02:49:25;14.50;;;4.27;;
5890;SDS011;2971;52.420;7.080;2024-01-16T02:51:51;8.07;;;4.00;;
5890;SDS011;2971;52.420;7.080;2024-01-16T02:54:17;12.53;;;4.63;;
5890;SDS011;2971;52.420;7.080;2024-01-16T02:56:42;13.83;;;4.73;;
5890;SDS011;2971;52.420;7.080;2024-01-16T02:59:09;15.83;;;4.97;;
5890;SDS011;2971;52.420;7.080;2024-01-16T03:01:35;17.93;;;5.50;;
5890;SDS011;2971;52.420;7.080;2024-01-16T03:04:01;13.67;;;5.00;;
5890;SDS011;2971;52.420;7.080;2024-01-16T03:06:26;16.10;;;5.17;;
5890;SDS011;2971;52.420;7.080;2024-01-16T03:08:53;18.97;;;5.13;;
5890;SDS011;2971;52.420;7.080;2024-01-16T03:11:19;15.07;;;5.03;;
5890;SDS011;2971;52.420;7.080;2024-01-16T03:13:44;17.13;;;5.13;;
5890;SDS011;2971;52.420;7.080;2024-01-16T03:16:11;13.03;;;4.83;;
5890;SDS011;2971;52.420;7.080;2024-01-16T03:18:37;14.63;;;4.73;;
5890;SDS011;2971;52.420;7.080;2024-01-16T03:21:03;12.67;;;5.00;;
5890;SDS011;2971;52.420;7.080;2024-01-16T03:23:29;14.20;;;5.50;;
5890;SDS011;2971;52.420;7.080;2024-01-16T03:25:54;8.07;;;4.73;;
5890;SDS011;2971;52.420;7.080;2024-01-16T03:28:20;19.37;;;5.03;;
5890;SDS011;2971;52.420;7.080;2024-01-16T03:30:45;16.40;;;5.47;;
5890;SDS011;2971;52.420;7.080;2024-01-16T03:33:12;13.93;;;4.40;;
5890;SDS011;2971;52.420;7.080;2024-01-16T03:35:38;14.23;;;4.70;;
5890;SDS011;2971;52.420;7.080;2024-01-16T03:38:03;14.17;;;4.53;;
5890;SDS011;2971;52.420;7.080;2024-01-16T03:40:29;13.97;;;4.43;;
5890;SDS011;2971;52.420;7.080;2024-01-16T03:42:59;15.00;;;4.77;;
5890;SDS011;2971;52.420;7.080;2024-01-16T03:45:24;11.57;;;4.23;;
5890;SDS011;2971;52.420;7.080;2024-01-16T03:47:51;14.70;;;4.10;;
5890;SDS011;2971;52.420;7.080;2024-01-16T03:50:18;14.70;;;4.37;;
5890;SDS011;2971;52.420;7.080;2024-01-16T03:52:44;9.10;;;3.93;;
5890;SDS011;2971;52.420;7.080;2024-01-16T03:55:09;18.87;;;4.93;;
5890;SDS011;2971;52.420;7.080;2024-01-16T03:57:35;13.40;;;4.50;;
5890;SDS011;2971;52.420;7.080;2024-01-16T04:00:00;11.43;;;4.40;;
5890;SDS011;2971;52.420;7.080;2024-01-16T04:02:26;9.67;;;4.27;;
5890;SDS011;2971;52.420;7.080;2024-01-16T04:04:52;13.20;;;4.77;;
5890;SDS011;2971;52.420;7.080;2024-01-16T04:07:18;12.33;;;4.13;;
5890;SDS011;2971;52.420;7.080;2024-01-16T04:09:44;13.17;;;4.13;;
5890;SDS011;2971;52.420;7.080;2024-01-16T04:12:10;10.00;;;4.23;;
5890;SDS011;2971;52.420;7.080;2024-01-16T04:14:36;10.50;;;4.13;;
5890;SDS011;2971;52.420;7.080;2024-01-16T04:17:01;10.50;;;3.50;;
5890;SDS011;2971;52.420;7.080;2024-01-16T04:19:27;8.37;;;3.90;;
5890;SDS011;2971;52.420;7.080;2024-01-16T04:21:53;9.27;;;3.83;;
5890;SDS011;2971;52.420;7.080;2024-01-16T04:24:20;8.67;;;3.83;;
5890;SDS011;2971;52.420;7.080;2024-01-16T04:26:46;13.67;;;4.27;;
5890;SDS011;2971;52.420;7.080;2024-01-16T04:29:11;12.23;;;4.10;;
5890;SDS011;2971;52.420;7.080;2024-01-16T04:31:38;9.27;;;4.43;;
5890;SDS011;2971;52.420;7.080;2024-01-16T04:34:05;14.67;;;4.20;;
5890;SDS011;2971;52.420;7.080;2024-01-16T04:36:31;13.47;;;4.20;;
5890;SDS011;2971;52.420;7.080;2024-01-16T04:38:56;8.60;;;4.07;;
5890;SDS011;2971;52.420;7.080;2024-01-16T04:41:23;9.93;;;3.93;;
5890;SDS011;2971;52.420;7.080;2024-01-16T04:43:49;10.47;;;4.27;;
5890;SDS011;2971;52.420;7.080;2024-01-16T04:46:17;13.00;;;4.40;;
5890;SDS011;2971;52.420;7.080;2024-01-16T04:48:43;12.67;;;4.50;;
5890;SDS011;2971;52.420;7.080;2024-01-16T04:51:08;13.43;;;4.37;;
5890;SDS011;2971;52.420;7.080;2024-01-16T04:53:34;10.93;;;3.93;;
5890;SDS011;2971;52.420;7.080;2024-01-16T04:56:00;9.53;;;3.93;;
5890;SDS011;2971;52.420;7.080;2024-01-16T04:58:26;11.00;;;3.67;;
5890;SDS011;2971;52.420;7.080;2024-01-16T05:00:52;15.03;;;4.13;;
5890;SDS011;2971;52.420;7.080;2024-01-16T05:03:18;12.17;;;4.03;;
5890;SDS011;2971;52.420;7.080;2024-01-16T05:05:43;7.57;;;3.60;;
5890;SDS011;2971;52.420;7.080;2024-01-16T05:08:09;13.70;;;3.90;;
5890;SDS011;2971;52.420;7.080;2024-01-16T05:10:34;11.23;;;4.03;;
5890;SDS011;2971;52.420;7.080;2024-01-16T05:13:00;10.67;;;3.77;;
5890;SDS011;2971;52.420;7.080;2024-01-16T05:15:27;13.23;;;3.77;;
5890;SDS011;2971;52.420;7.080;2024-01-16T05:17:52;10.97;;;3.60;;
5890;SDS011;2971;52.420;7.080;2024-01-16T05:20:18;7.77;;;3.63;;
5890;SDS011;2971;52.420;7.080;2024-01-16T05:22:44;10.33;;;3.73;;
5890;SDS011;2971;52.420;7.080;2024-01-16T05:25:09;10.57;;;3.53;;
5890;SDS011;2971;52.420;7.080;2024-01-16T05:27:35;9.10;;;3.70;;
5890;SDS011;2971;52.420;7.080;2024-01-16T05:30:01;7.37;;;3.27;;
5890;SDS011;2971;52.420;7.080;2024-01-16T05:32:28;8.60;;;3.77;;
5890;SDS011;2971;52.420;7.080;2024-01-16T05:34:54;14.83;;;3.60;;
5890;SDS011;2971;52.420;7.080;2024-01-16T05:37:19;10.50;;;3.63;;
5890;SDS011;2971;52.420;7.080;2024-01-16T05:39:45;9.03;;;3.43;;
5890;SDS011;2971;52.420;7.080;2024-01-16T05:42:11;9.23;;;3.33;;
5890;SDS011;2971;52.420;7.080;2024-01-16T05:44:36;10.17;;;3.37;;
5890;SDS011;2971;52.420;7.080;2024-01-16T05:47:03;11.03;;;3.43;;
5890;SDS011;2971;52.420;7.080;2024-01-16T05:49:30;9.63;;;3.23;;
5890;SDS011;2971;52.420;7.080;2024-01-16T05:51:55;11.67;;;3.50;;
5890;SDS011;2971;52.420;7.080;2024-01-16T05:54:21;8.33;;;3.77;;
5890;SDS011;2971;52.420;7.080;2024-01-16T05:56:46;9.67;;;3.47;;
5890;SDS011;2971;52.420;7.080;2024-01-16T05:59:12;8.57;;;3.50;;
5890;SDS011;2971;52.420;7.080;2024-01-16T06:01:38;6.07;;;3.20;;
5890;SDS011;2971;52.420;7.080;2024-01-16T06:04:03;4.77;;;3.20;;
5890;SDS011;2971;52.420;7.080;2024-01-16T06:06:31;8.90;;;3.33;;
5890;SDS011;2971;52.420;7.080;2024-01-16T06:08:56;6.67;;;3.40;;
5890;SDS011;2971;52.420;7.080;2024-01-16T06:11:29;7.00;;;3.60;;
5890;SDS011;2971;52.420;7.080;2024-01-16T06:13:55;7.40;;;3.43;;
5890;SDS011;2971;52.420;7.080;2024-01-16T06:16:20;7.53;;;3.50;;
5890;SDS011;2971;52.420;7.080;2024-01-16T06:18:46;9.43;;;3.80;;
5890;SDS011;2971;52.420;7.080;2024-01-16T06:21:11;8.10;;;3.43;;
5890;SDS011;2971;52.420;7.080;2024-01-16T06:23:38;7.37;;;3.17;;
5890;SDS011;2971;52.420;7.080;2024-01-16T06:26:04;14.03;;;4.13;;
5890;SDS011;2971;52.420;7.080;2024-01-16T06:28:29;9.77;;;3.67;;
5890;SDS011;2971;52.420;7.080;2024-01-16T06:30:55;7.13;;;3.50;;
5890;SDS011;2971;52.420;7.080;2024-01-16T06:33:21;8.53;;;3.70;;
5890;SDS011;2971;52.420;7.080;2024-01-16T06:35:46;7.83;;;3.33;;
5890;SDS011;2971;52.420;7.080;2024-01-16T06:38:12;10.10;;;3.33;;
5890;SDS011;2971;52.420;7.080;2024-01-16T06:40:39;13.70;;;3.93;;
5890;SDS011;2971;52.420;7.080;2024-01-16T06:43:04;7.97;;;3.50;;
5890;SDS011;2971;52.420;7.080;2024-01-16T06:45:31;7.13;;;3.40;;
5890;SDS011;2971;52.420;7.080;2024-01-16T06:47:56;10.87;;;4.20;;
5890;SDS011;2971;52.420;7.080;2024-01-16T06:50:22;6.77;;;3.70;;
5890;SDS011;2971;52.420;7.080;2024-01-16T06:52:48;11.30;;;3.60;;
5890;SDS011;2971;52.420;7.080;2024-01-16T06:55:13;7.30;;;3.50;;
5890;SDS011;2971;52.420;7.080;2024-01-16T06:57:40;9.30;;;4.13;;
5890;SDS011;2971;52.420;7.080;2024-01-16T07:00:06;12.00;;;3.90;;
5890;SDS011;2971;52.420;7.080;2024-01-16T07:02:32;8.20;;;3.50;;
5890;SDS011;2971;52.420;7.080;2024-01-16T07:04:58;10.37;;;3.93;;
5890;SDS011;2971;52.420;7.080;2024-01-16T07:07:24;7.77;;;4.20;;
5890;SDS011;2971;52.420;7.080;2024-01-16T07:09:49;10.23;;;4.03;;
5890;SDS011;2971;52.420;7.080;2024-01-16T07:12:15;8.27;;;4.47;;
5890;SDS011;2971;52.420;7.080;2024-01-16T07:14:42;9.13;;;4.43;;
5890;SDS011;2971;52.420;7.080;2024-01-16T07:17:07;6.90;;;3.87;;
5890;SDS011;2971;52.420;7.080;2024-01-16T07:19:33;10.87;;;3.67;;
5890;SDS011;2971;52.420;7.080;2024-01-16T07:21:58;8.60;;;4.10;;
5890;SDS011;2971;52.420;7.080;2024-01-16T07:24:24;10.33;;;4.73;;
5890;SDS011;2971;52.420;7.080;2024-01-16T07:26:50;9.20;;;4.27;;
5890;SDS011;2971;52.420;7.080;2024-01-16T07:29:15;8.13;;;4.53;;
5890;SDS011;2971;52.420;7.080;2024-01-16T07:31:42;9.93;;;4.87;;
5890;SDS011;2971;52.420;7.080;2024-01-16T07:34:08;9.50;;;4.60;;
5890;SDS011;2971;52.420;7.080;2024-01-16T07:36:33;9.87;;;5.03;;
5890;SDS011;2971;52.420;7.080;2024-01-16T07:38:59;8.07;;;4.93;;
5890;SDS011;2971;52.420;7.080;2024-01-16T07:41:25;10.03;;;5.40;;
5890;SDS011;2971;52.420;7.080;2024-01-16T07:43:51;10.00;;;5.53;;
5890;SDS011;2971;52.420;7.080;2024-01-16T07:46:16;11.57;;;5.90;;
5890;SDS011;2971;52.420;7.080;2024-01-16T07:48:44;11.90;;;5.93;;
5890;SDS011;2971;52.420;7.080;2024-01-16T07:51:09;9.23;;;6.07;;
5890;SDS011;2971;52.420;7.080;2024-01-16T07:53:35;14.40;;;6.23;;
5890;SDS011;2971;52.420;7.080;2024-01-16T07:56:00;11.80;;;6.47;;
5890;SDS011;2971;52.420;7.080;2024-01-16T07:58:26;17.50;;;7.53;;
5890;SDS011;2971;52.420;7.080;2024-01-16T08:00:51;10.80;;;6.87;;
5890;SDS011;2971;52.420;7.080;2024-01-16T08:03:17;11.80;;;7.27;;
5890;SDS011;2971;52.420;7.080;2024-01-16T08:05:44;14.13;;;6.97;;
5890;SDS011;2971;52.420;7.080;2024-01-16T08:08:10;11.53;;;7.43;;
5890;SDS011;2971;52.420;7.080;2024-01-16T08:10:36;10.97;;;7.03;;
5890;SDS011;2971;52.420;7.080;2024-01-16T08:13:02;12.47;;;7.73;;
5890;SDS011;2971;52.420;7.080;2024-01-16T08:15:28;17.10;;;8.07;;
5890;SDS011;2971;52.420;7.080;2024-01-16T08:17:53;13.60;;;8.60;;
5890;SDS011;2971;52.420;7.080;2024-01-16T08:20:19;11.93;;;7.63;;
5890;SDS011;2971;52.420;7.080;2024-01-16T08:22:46;15.10;;;9.17;;
5890;SDS011;2971;52.420;7.080;2024-01-16T08:25:12;12.47;;;8.20;;
5890;SDS011;2971;52.420;7.080;2024-01-16T08:27:37;14.17;;;8.13;;
5890;SDS011;2971;52.420;7.080;2024-01-16T08:30:03;12.60;;;8.73;;
5890;SDS011;2971;52.420;7.080;2024-01-16T08:32:30;15.53;;;8.77;;
5890;SDS011;2971;52.420;7.080;2024-01-16T08:34:57;14.83;;;8.67;;
5890;SDS011;2971;52.420;7.080;2024-01-16T08:37:22;13.80;;;10.17;;
5890;SDS011;2971;52.420;7.080;2024-01-16T08:39:49;13.30;;;9.53;;
5890;SDS011;2971;52.420;7.080;2024-01-16T08:42:15;15.93;;;9.53;;
5890;SDS011;2971;52.420;7.080;2024-01-16T08:44:40;12.90;;;9.27;;
5890;SDS011;2971;52.420;7.080;2024-01-16T08:47:06;14.77;;;10.07;;
5890;SDS011;2971;52.420;7.080;2024-01-16T08:49:32;16.00;;;9.23;;
5890;SDS011;2971;52.420;7.080;2024-01-16T08:51:58;13.83;;;9.77;;
5890;SDS011;2971;52.420;7.080;2024-01-16T08:54:24;12.40;;;9.70;;
5890;SDS011;2971;52.420;7.080;2024-01-16T08:56:52;17.43;;;9.77;;
5890;SDS011;2971;52.420;7.080;2024-01-16T08:59:18;15.43;;;9.77;;
5890;SDS011;2971;52.420;7.080;2024-01-16T09:01:43;14.13;;;8.87;;
5890;SDS011;2971;52.420;7.080;2024-01-16T09:04:09;14.70;;;9.53;;
5890;SDS011;2971;52.420;7.080;2024-01-16T09:06:35;14.00;;;9.10;;
5890;SDS011;2971;52.420;7.080;2024-01-16T09:09:01;12.87;;;9.47;;
5890;SDS011;2971;52.420;7.080;2024-01-16T09:11:29;15.70;;;9.47;;
5890;SDS011;2971;52.420;7.080;2024-01-16T09:13:56;15.30;;;9.57;;
5890;SDS011;2971;52.420;7.080;2024-01-16T09:16:21;12.77;;;9.07;;
5890;SDS011;2971;52.420;7.080;2024-01-16T09:18:47;18.47;;;9.83;;
5890;SDS011;2971;52.420;7.080;2024-01-16T09:21:12;16.33;;;9.57;;
5890;SDS011;2971;52.420;7.080;2024-01-16T09:23:38;15.97;;;8.63;;
5890;SDS011;2971;52.420;7.080;2024-01-16T09:26:04;17.67;;;8.93;;
5890;SDS011;2971;52.420;7.080;2024-01-16T09:28:29;13.90;;;8.47;;
5890;SDS011;2971;52.420;7.080;2024-01-16T09:30:56;13.67;;;9.40;;
5890;SDS011;2971;52.420;7.080;2024-01-16T09:33:22;14.27;;;9.00;;
5890;SDS011;2971;52.420;7.080;2024-01-16T09:35:47;16.63;;;9.53;;
5890;SDS011;2971;52.420;7.080;2024-01-16T09:38:13;16.10;;;9.50;;
5890;SDS011;2971;52.420;7.080;2024-01-16T09:40:38;16.80;;;9.17;;
5890;SDS011;2971;52.420;7.080;2024-01-16T09:43:04;13.87;;;8.30;;
5890;SDS011;2971;52.420;7.080;2024-01-16T09:45:33;17.23;;;9.20;;
5890;SDS011;2971;52.420;7.080;2024-01-16T09:48:04;13.93;;;8.80;;
5890;SDS011;2971;52.420;7.080;2024-01-16T09:50:30;16.20;;;8.83;;
5890;SDS011;2971;52.420;7.080;2024-01-16T09:52:56;14.83;;;8.37;;
5890;SDS011;2971;52.420;7.080;2024-01-16T09:55:21;12.83;;;8.17;;
5890;SDS011;2971;52.420;7.080;2024-01-16T09:57:47;15.30;;;8.47;;
5890;SDS011;2971;52.420;7.080;2024-01-16T10:00:16;8.70;;;7.70;;
5890;SDS011;2971;52.420;7.080;2024-01-16T10:02:42;12.13;;;7.93;;
5890;SDS011;2971;52.420;7.080;2024-01-16T10:05:09;11.60;;;7.67;;
5890;SDS011;2971;52.420;7.080;2024-01-16T10:07:35;10.37;;;7.47;;
5890;SDS011;2971;52.420;7.080;2024-01-16T10:10:04;15.03;;;7.90;;
5890;SDS011;2971;52.420;7.080;2024-01-16T10:12:30;10.00;;;7.87;;
5890;SDS011;2971;52.420;7.080;2024-01-16T10:14:56;14.50;;;7.70;;
5890;SDS011;2971;52.420;7.080;2024-01-16T10:17:21;11.73;;;8.50;;
5890;SDS011;2971;52.420;7.080;2024-01-16T10:19:48;11.27;;;8.80;;
5890;SDS011;2971;52.420;7.080;2024-01-16T10:22:19;15.33;;;8.50;;
5890;SDS011;2971;52.420;7.080;2024-01-16T10:24:45;13.17;;;8.40;;
5890;SDS011;2971;52.420;7.080;2024-01-16T10:27:10;18.23;;;8.80;;
5890;SDS011;2971;52.420;7.080;2024-01-16T10:29:36;14.13;;;9.03;;
5890;SDS011;2971;52.420;7.080;2024-01-16T10:32:02;13.20;;;9.47;;
5890;SDS011;2971;52.420;7.080;2024-01-16T10:34:27;13.90;;;9.47;;
5890;SDS011;2971;52.420;7.080;2024-01-16T10:36:58;14.43;;;9.90;;
5890;SDS011;2971;52.420;7.080;2024-01-16T10:39:26;15.63;;;9.03;;
5890;SDS011;2971;52.420;7.080;2024-01-16T10:41:55;14.43;;;9.27;;
5890;SDS011;2971;52.420;7.080;2024-01-16T10:44:21;18.10;;;11.47;;
5890;SDS011;2971;52.420;7.080;2024-01-16T10:46:47;17.17;;;10.00;;
5890;SDS011;2971;52.420;7.080;2024-01-16T10:49:12;15.63;;;10.67;;
5890;SDS011;2971;52.420;7.080;2024-01-16T10:51:38;20.20;;;10.70;;
5890;SDS011;2971;52.420;7.080;2024-01-16T10:54:05;16.03;;;10.60;;
5890;SDS011;2971;52.420;7.080;2024-01-16T10:56:32;18.60;;;11.80;;
5890;SDS011;2971;52.420;7.080;2024-01-16T10:59:01;13.83;;;11.20;;
5890;SDS011;2971;52.420;7.080;2024-01-16T11:01:31;17.07;;;11.03;;
5890;SDS011;2971;52.420;7.080;2024-01-16T11:03:57;20.33;;;11.57;;
5890;SDS011;2971;52.420;7.080;2024-01-16T11:06:24;17.60;;;11.80;;
5890;SDS011;2971;52.420;7.080;2024-01-16T11:08:50;16.13;;;11.13;;
5890;SDS011;2971;52.420;7.080;2024-01-16T11:11:16;16.00;;;11.07;;
5890;SDS011;2971;52.420;7.080;2024-01-16T11:13:43;16.83;;;11.87;;
5890;SDS011;2971;52.420;7.080;2024-01-16T11:16:11;17.27;;;12.67;;
5890;SDS011;2971;52.420;7.080;2024-01-16T11:18:37;21.87;;;12.83;;
5890;SDS011;2971;52.420;7.080;2024-01-16T11:21:04;19.63;;;13.17;;
5890;SDS011;2971;52.420;7.080;2024-01-16T11:23:31;18.53;;;12.77;;
5890;SDS011;2971;52.420;7.080;2024-01-16T11:25:56;22.43;;;13.07;;
5890;SDS011;2971;52.420;7.080;2024-01-16T11:28:26;20.50;;;13.87;;
5890;SDS011;2971;52.420;7.080;2024-01-16T11:30:54;19.30;;;14.53;;
5890;SDS011;2971;52.420;7.080;2024-01-16T11:36:09;23.23;;;14.03;;
5890;SDS011;2971;52.420;7.080;2024-01-16T11:39:08;18.67;;;13.43;;
5890;SDS011;2971;52.420;7.080;2024-01-16T11:41:49;21.93;;;13.13;;
5890;SDS011;2971;52.420;7.080;2024-01-16T11:44:40;23.43;;;13.63;;
5890;SDS011;2971;52.420;7.080;2024-01-16T11:47:09;17.97;;;12.93;;
5890;SDS011;2971;52.420;7.080;2024-01-16T11:49:35;14.90;;;12.10;;
5890;SDS011;2971;52.420;7.080;2024-01-16T11:52:01;19.73;;;12.10;;
5890;SDS011;2971;52.420;7.080;2024-01-16T11:54:27;19.70;;;11.60;;
5890;SDS011;2971;52.420;7.080;2024-01-16T11:57:01;17.87;;;11.70;;
5890;SDS011;2971;52.420;7.080;2024-01-16T11:59:56;19.00;;;10.77;;
5890;SDS011;2971;52.420;7.080;2024-01-16T12:02:26;15.17;;;10.13;;
5890;SDS011;2971;52.420;7.080;2024-01-16T12:04:56;18.73;;;10.10;;
5890;SDS011;2971;52.420;7.080;2024-01-16T12:07:28;14.03;;;9.23;;
5890;SDS011;2971;52.420;7.080;2024-01-16T12:09:58;14.03;;;9.20;;
5890;SDS011;2971;52.420;7.080;2024-01-16T12:12:24;15.43;;;9.27;;
5890;SDS011;2971;52.420;7.080;2024-01-16T12:14:52;13.40;;;9.43;;
5890;SDS011;2971;52.420;7.080;2024-01-16T12:17:21;14.53;;;8.60;;
5890;SDS011;2971;52.420;7.080;2024-01-16T12:19:48;17.07;;;9.03;;
5890;SDS011;2971;52.420;7.080;2024-01-16T12:22:15;13.97;;;9.13;;
5890;SDS011;2971;52.420;7.080;2024-01-16T12:24:43;17.73;;;8.23;;
5890;SDS011;2971;52.420;7.080;2024-01-16T12:27:10;16.00;;;8.67;;
5890;SDS011;2971;52.420;7.080;2024-01-16T12:29:36;15.80;;;8.43;;
5890;SDS011;2971;52.420;7.080;2024-01-16T12:32:05;10.27;;;7.60;;
5890;SDS011;2971;52.420;7.080;2024-01-16T12:34:32;12.03;;;7.27;;
5890;SDS011;2971;52.420;7.080;2024-01-16T12:37:05;14.00;;;7.47;;
5890;SDS011;2971;52.420;7.080;2024-01-16T12:39:34;15.23;;;8.00;;
5890;SDS011;2971;52.420;7.080;2024-01-16T12:42:00;12.80;;;7.60;;
5890;SDS011;2971;52.420;7.080;2024-01-16T12:44:26;16.07;;;8.50;;
5890;SDS011;2971;52.420;7.080;2024-01-16T12:46:53;14.67;;;7.70;;
5890;SDS011;2971;52.420;7.080;2024-01-16T12:49:19;11.57;;;7.53;;
5890;SDS011;2971;52.420;7.080;2024-01-16T12:51:45;14.80;;;7.10;;
5890;SDS011;2971;52.420;7.080;2024-01-16T12:54:15;13.37;;;6.67;;
5890;SDS011;2971;52.420;7.080;2024-01-16T12:56:41;15.13;;;6.97;;
5890;SDS011;2971;52.420;7.080;2024-01-16T12:59:10;13.63;;;6.80;;
5890;SDS011;2971;52.420;7.080;2024-01-16T13:01:36;11.50;;;6.73;;
5890;SDS011;2971;52.420;7.080;2024-01-16T13:04:05;11.20;;;5.87;;
5890;SDS011;2971;52.420;7.080;2024-01-16T13:06:30;15.57;;;6.70;;
5890;SDS011;2971;52.420;7.080;2024-01-16T13:09:04;9.40;;;6.03;;
5890;SDS011;2971;52.420;7.080;2024-01-16T13:11:48;11.97;;;6.70;;
5890;SDS011;2971;52.420;7.080;2024-01-16T13:14:15;9.60;;;6.13;;
5890;SDS011;2971;52.420;7.080;2024-01-16T13:16:40;11.00;;;5.80;;
5890;SDS011;2971;52.420;7.080;2024-01-16T13:19:06;11.00;;;6.00;;
5890;SDS011;2971;52.420;7.080;2024-01-16T13:21:35;11.23;;;6.43;;
5890;SDS011;2971;52.420;7.080;2024-01-16T13:24:02;12.53;;;6.40;;
5890;SDS011;2971;52.420;7.080;2024-01-16T13:26:28;9.77;;;6.43;;
5890;SDS011;2971;52.420;7.080;2024-01-16T13:28:55;9.80;;;5.63;;
5890;SDS011;2971;52.420;7.080;2024-01-16T13:31:20;11.93;;;6.13;;
5890;SDS011;2971;52.420;7.080;2024-01-16T13:33:46;9.67;;;6.20;;
5890;SDS011;2971;52.420;7.080;2024-01-16T13:36:12;11.63;;;6.20;;
5890;SDS011;2971;52.420;7.080;2024-01-16T13:38:37;10.07;;;6.37;;
5890;SDS011;2971;52.420;7.080;2024-01-16T13:41:03;10.83;;;6.73;;
5890;SDS011;2971;52.420;7.080;2024-01-16T13:43:29;7.97;;;5.90;;
5890;SDS011;2971;52.420;7.080;2024-01-16T13:45:55;12.00;;;6.37;;
5890;SDS011;2971;52.420;7.080;2024-01-16T13:48:21;11.77;;;5.57;;
5890;SDS011;2971;52.420;7.080;2024-01-16T13:50:47;8.37;;;5.53;;
5890;SDS011;2971;52.420;7.080;2024-01-16T13:53:12;8.23;;;5.47;;
5890;SDS011;2971;52.420;7.080;2024-01-16T13:55:38;8.17;;;5.30;;
5890;SDS011;2971;52.420;7.080;2024-01-16T13:58:04;10.60;;;5.37;;
5890;SDS011;2971;52.420;7.080;2024-01-16T14:00:29;8.67;;;5.30;;
5890;SDS011;2971;52.420;7.080;2024-01-16T14:02:57;11.27;;;5.40;;
5890;SDS011;2971;52.420;7.080;2024-01-16T14:05:22;13.20;;;5.70;;
5890;SDS011;2971;52.420;7.080;2024-01-16T14:07:48;12.27;;;5.10;;
5890;SDS011;2971;52.420;7.080;2024-01-16T14:10:16;11.07;;;5.20;;
5890;SDS011;2971;52.420;7.080;2024-01-16T14:12:42;11.00;;;4.90;;
5890;SDS011;2971;52.420;7.080;2024-01-16T14:15:09;8.10;;;4.50;;
5890;SDS011;2971;52.420;7.080;2024-01-16T14:17:41;8.70;;;5.57;;
5890;SDS011;2971;52.420;7.080;2024-01-16T14:20:09;8.77;;;4.80;;
5890;SDS011;2971;52.420;7.080;2024-01-16T14:22:36;11.40;;;5.37;;
5890;SDS011;2971;52.420;7.080;2024-01-16T14:25:03;10.67;;;5.40;;
5890;SDS011;2971;52.420;7.080;2024-01-16T14:27:35;12.30;;;5.50;;
5890;SDS011;2971;52.420;7.080;2024-01-16T14:30:01;9.30;;;5.10;;
5890;SDS011;2971;52.420;7.080;2024-01-16T14:32:27;7.77;;;4.37;;
5890;SDS011;2971;52.420;7.080;2024-01-16T14:34:53;6.47;;;4.43;;
5890;SDS011;2971;52.420;7.080;2024-01-16T14:37:20;12.37;;;5.13;;
5890;SDS011;2971;52.420;7.080;2024-01-16T14:39:45;7.23;;;4.23;;
5890;SDS011;2971;52.420;7.080;2024-01-16T14:42:11;8.83;;;4.70;;
5890;SDS011;2971;52.420;7.080;2024-01-16T14:44:38;9.30;;;4.20;;
5890;SDS011;2971;52.420;7.080;2024-01-16T14:47:03;7.73;;;4.50;;
5890;SDS011;2971;52.420;7.080;2024-01-16T14:49:29;10.20;;;4.93;;
5890;SDS011;2971;52.420;7.080;2024-01-16T14:51:57;10.33;;;4.73;;
5890;SDS011;2971;52.420;7.080;2024-01-16T14:54:27;9.97;;;4.80;;
5890;SDS011;2971;52.420;7.080;2024-01-16T14:56:53;7.70;;;4.60;;
5890;SDS011;2971;52.420;7.080;2024-01-16T14:59:18;9.00;;;4.97;;
5890;SDS011;2971;52.420;7.080;2024-01-16T15:01:44;11.23;;;4.50;;
5890;SDS011;2971;52.420;7.080;2024-01-16T15:04:09;9.60;;;4.40;;